Hillburn, New York
Current Conditions -  °F | °C
As of 7:53 AM on Sunday 23 Nov 2014 (Local Time) from KCDW Reporting Station
Overcast Overcast  
Wind Chill: 38°   Ceiling: 8000
Heat Index: 41°   Visibility: 10mi
Dew Point: 21°   Wind: 5mph
Humidity: 45%   Direction: NA
Pressure: 30.21"   Gusts: NA
Location:  41.12°N, 74.17°W
Report Text: KCDW 231253Z VRB04KT 10SM OVC080 05/M06 A3021 RMK AO2 SLP236 T00501061
Loading
Personal Weather Stations






























Interactive Weather Map New forecast layout! Learn more

10-Day Weather Forecast

Advertisements
Track Severe Weather on mobile